createdAt,value
2018-04-26T00:00:47.023Z,0.00
2018-04-26T00:01:47.449Z,0.00
2018-04-26T00:02:47.878Z,0.00
2018-04-26T00:03:48.386Z,0.00
2018-04-26T00:04:48.728Z,0.00
2018-04-26T00:05:49.159Z,0.00
2018-04-26T00:06:49.598Z,0.00
2018-04-26T00:07:50.018Z,0.00
2018-04-26T00:08:50.446Z,0.00
2018-04-26T00:09:50.878Z,0.00
2018-04-26T00:10:51.300Z,0.00
2018-04-26T00:11:51.730Z,0.00
2018-04-26T00:12:52.156Z,0.00
2018-04-26T00:13:52.588Z,0.00
2018-04-26T00:14:53.031Z,0.00
2018-04-26T00:15:53.438Z,0.00
2018-04-26T00:16:53.871Z,0.00
2018-04-26T00:17:54.299Z,0.00
2018-04-26T00:18:54.723Z,0.00
2018-04-26T00:19:55.148Z,0.00
2018-04-26T00:20:55.576Z,0.00
2018-04-26T00:21:56.004Z,0.00
2018-04-26T00:22:56.432Z,0.00
2018-04-26T00:23:56.857Z,0.00
2018-04-26T00:24:57.287Z,0.00
2018-04-26T00:25:57.712Z,0.00
2018-04-26T00:26:58.146Z,0.00
2018-04-26T00:27:58.571Z,0.00
2018-04-26T00:28:58.999Z,0.00
2018-04-26T00:29:59.427Z,0.00
2018-04-26T00:30:59.856Z,0.00
2018-04-26T00:32:00.278Z,0.00
2018-04-26T00:33:00.709Z,0.00
2018-04-26T00:34:01.148Z,0.00
2018-04-26T00:35:01.563Z,0.00
2018-04-26T00:36:01.999Z,0.00
2018-04-26T00:37:02.434Z,0.00
2018-04-26T00:38:02.848Z,0.00
2018-04-26T00:39:03.271Z,0.00
2018-04-26T00:40:03.704Z,0.00
2018-04-26T00:41:04.134Z,0.00
2018-04-26T00:42:04.556Z,0.00
2018-04-26T00:43:04.991Z,0.00
2018-04-26T00:44:05.409Z,0.00
2018-04-26T00:45:05.841Z,0.00
2018-04-26T00:46:06.269Z,0.00
2018-04-26T00:47:06.693Z,0.00
2018-04-26T00:48:07.121Z,0.00
2018-04-26T00:49:07.554Z,0.00
2018-04-26T00:50:07.974Z,0.00
2018-04-26T00:51:08.404Z,0.00
2018-04-26T00:52:08.831Z,0.00
2018-04-26T00:53:09.261Z,0.00
2018-04-26T00:54:09.746Z,0.00
2018-04-26T00:55:10.116Z,0.00
2018-04-26T00:56:10.543Z,0.00
2018-04-26T00:57:10.969Z,0.00
2018-04-26T00:58:11.401Z,0.00
2018-04-26T00:59:11.823Z,0.00
2018-04-26T01:00:12.256Z,0.00
2018-04-26T01:01:12.691Z,0.00
2018-04-26T01:02:13.112Z,0.00
2018-04-26T01:03:13.532Z,0.00
2018-04-26T01:04:13.960Z,0.00
2018-04-26T01:05:14.387Z,0.00
2018-04-26T01:06:14.813Z,0.00
2018-04-26T01:07:15.245Z,0.00
2018-04-26T01:08:15.670Z,0.00
2018-04-26T01:09:16.111Z,0.00
2018-04-26T01:10:16.527Z,0.00
2018-04-26T01:11:16.953Z,0.00
2018-04-26T01:12:17.382Z,0.00
2018-04-26T01:13:17.806Z,0.00
2018-04-26T01:14:18.238Z,0.00
2018-04-26T01:15:18.656Z,0.00
2018-04-26T01:16:19.091Z,0.00
2018-04-26T01:17:19.513Z,0.00
2018-04-26T01:18:19.943Z,0.00
2018-04-26T01:19:20.370Z,0.00
2018-04-26T01:20:20.810Z,0.00
2018-04-26T01:21:21.217Z,0.00
2018-04-26T01:22:21.655Z,0.00
2018-04-26T01:23:22.071Z,0.00
2018-04-26T01:24:22.499Z,0.00
2018-04-26T01:25:22.927Z,0.00
2018-04-26T01:26:23.351Z,0.00
2018-04-26T01:27:23.783Z,0.00
2018-04-26T01:28:24.210Z,0.00
2018-04-26T01:29:24.631Z,0.00
2018-04-26T01:30:25.059Z,0.00
2018-04-26T01:31:25.487Z,0.00
2018-04-26T01:32:25.920Z,0.00
2018-04-26T01:33:26.340Z,0.00
2018-04-26T01:34:26.761Z,0.00
2018-04-26T01:35:27.194Z,0.00
2018-04-26T01:36:27.626Z,0.00
2018-04-26T01:37:28.045Z,0.00
2018-04-26T01:38:28.472Z,0.00
2018-04-26T01:39:28.896Z,0.00
2018-04-26T01:40:29.332Z,0.00
2018-04-26T01:41:29.763Z,0.00
2018-04-26T01:42:30.184Z,0.00
2018-04-26T01:43:30.606Z,0.00
2018-04-26T01:44:31.032Z,0.00
2018-04-26T01:45:31.457Z,0.00
2018-04-26T01:46:31.889Z,0.00
2018-04-26T01:47:32.315Z,0.00
2018-04-26T01:48:32.742Z,0.00
2018-04-26T01:49:33.171Z,0.00
2018-04-26T01:50:33.591Z,0.00
2018-04-26T01:51:34.018Z,0.00
2018-04-26T01:52:34.446Z,0.00
2018-04-26T01:53:34.873Z,0.00
2018-04-26T01:54:35.296Z,0.00
2018-04-26T01:55:35.723Z,0.00
2018-04-26T01:56:36.155Z,0.00
2018-04-26T01:57:36.579Z,0.00
2018-04-26T01:58:37.004Z,0.00
2018-04-26T01:59:37.428Z,0.00
2018-04-26T02:00:37.861Z,0.00
2018-04-26T02:01:38.294Z,0.00
2018-04-26T02:02:38.713Z,0.00
2018-04-26T02:03:39.136Z,0.00
2018-04-26T02:04:39.564Z,0.00
2018-04-26T02:05:39.990Z,0.00
2018-04-26T02:06:40.423Z,0.00
2018-04-26T02:07:40.839Z,0.00
2018-04-26T02:08:41.270Z,0.00
2018-04-26T02:09:41.698Z,0.00
2018-04-26T02:10:42.123Z,0.00
2018-04-26T02:11:42.549Z,0.00
2018-04-26T02:12:42.984Z,0.00
2018-04-26T02:13:43.400Z,0.00
2018-04-26T02:14:43.825Z,0.00
2018-04-26T02:15:44.252Z,0.00
2018-04-26T02:16:44.682Z,0.00
2018-04-26T02:17:45.105Z,0.00
2018-04-26T02:18:45.530Z,0.00
2018-04-26T02:19:45.955Z,0.00
2018-04-26T02:20:46.388Z,0.00
2018-04-26T02:21:46.811Z,0.00
2018-04-26T02:22:47.239Z,0.00
2018-04-26T02:23:47.662Z,0.00
2018-04-26T02:24:48.102Z,0.00
2018-04-26T02:25:48.515Z,0.00
2018-04-26T02:26:48.941Z,0.00
2018-04-26T02:27:49.398Z,0.00
2018-04-26T02:28:49.796Z,0.00
2018-04-26T02:29:50.221Z,0.00
2018-04-26T02:30:50.646Z,0.00
2018-04-26T02:31:51.102Z,0.00
2018-04-26T02:32:51.498Z,0.00
2018-04-26T02:33:51.938Z,0.00
2018-04-26T02:34:52.357Z,0.00
2018-04-26T02:35:52.781Z,0.00
2018-04-26T02:36:53.213Z,0.00
2018-04-26T02:37:53.634Z,0.00
2018-04-26T02:38:54.060Z,0.00
2018-04-26T02:39:54.480Z,0.00
2018-04-26T02:40:54.909Z,0.00
2018-04-26T02:41:55.336Z,0.00
2018-04-26T02:42:55.760Z,0.00
2018-04-26T02:43:56.186Z,0.00
2018-04-26T02:44:56.612Z,0.00
2018-04-26T02:45:57.038Z,0.00
2018-04-26T02:46:57.464Z,0.00
2018-04-26T02:47:57.893Z,0.00
2018-04-26T02:48:58.317Z,0.00
2018-04-26T02:49:58.746Z,0.00
2018-04-26T02:50:59.162Z,0.00
2018-04-26T02:51:59.602Z,0.00
2018-04-26T02:53:00.022Z,0.00
2018-04-26T02:54:00.452Z,0.00
2018-04-26T02:55:00.873Z,0.00
2018-04-26T02:56:01.299Z,0.00
2018-04-26T02:57:01.732Z,0.00
2018-04-26T02:58:02.151Z,0.00
2018-04-26T02:59:02.578Z,0.00
2018-04-26T03:00:03.007Z,0.00
2018-04-26T03:01:03.437Z,0.00
2018-04-26T03:02:03.854Z,0.00
2018-04-26T03:03:04.286Z,0.00
2018-04-26T03:04:04.716Z,0.00
2018-04-26T03:05:05.137Z,0.00
2018-04-26T03:06:05.561Z,0.00
2018-04-26T03:07:05.988Z,4.00
2018-04-26T03:08:06.417Z,4.00
2018-04-26T03:09:06.839Z,4.00
2018-04-26T03:10:07.267Z,0.00
2018-04-26T03:11:07.698Z,0.00
2018-04-26T03:12:08.119Z,4.00
2018-04-26T03:13:08.547Z,4.00
2018-04-26T03:14:08.972Z,4.00
2018-04-26T03:15:09.395Z,4.00
2018-04-26T03:16:09.827Z,4.00
2018-04-26T03:17:10.252Z,4.00
2018-04-26T03:18:10.676Z,4.00
2018-04-26T03:19:11.103Z,8.00
2018-04-26T03:20:11.531Z,8.00
2018-04-26T03:21:11.963Z,8.00
2018-04-26T03:22:12.441Z,8.00
2018-04-26T03:23:12.814Z,12.00
2018-04-26T03:24:13.233Z,12.00
2018-04-26T03:25:13.660Z,16.00
2018-04-26T03:26:14.090Z,16.00
2018-04-26T03:27:14.511Z,20.00
2018-04-26T03:28:14.941Z,24.00
2018-04-26T03:29:15.369Z,28.00
2018-04-26T03:30:15.798Z,32.00
2018-04-26T03:31:16.384Z,36.00
2018-04-26T03:32:16.646Z,40.00
2018-04-26T03:33:17.075Z,48.00
2018-04-26T03:34:17.500Z,52.00
2018-04-26T03:35:17.927Z,56.00
2018-04-26T03:36:18.350Z,64.00
2018-04-26T03:37:18.822Z,72.00
2018-04-26T03:38:19.203Z,80.00
2018-04-26T03:39:19.633Z,92.00
2018-04-26T03:40:20.064Z,100.00
2018-04-26T03:41:20.481Z,108.00
2018-04-26T03:42:20.905Z,120.00
2018-04-26T03:43:21.331Z,132.00
2018-04-26T03:44:21.760Z,144.00
2018-04-26T03:45:22.187Z,164.00
2018-04-26T03:46:22.615Z,176.00
2018-04-26T03:47:23.035Z,192.00
2018-04-26T03:48:23.461Z,212.00
2018-04-26T03:49:23.900Z,232.00
2018-04-26T03:50:24.316Z,248.00
2018-04-26T03:51:24.739Z,268.00
2018-04-26T03:52:25.170Z,284.00
2018-04-26T03:53:25.600Z,300.00
2018-04-26T03:54:26.025Z,312.00
2018-04-26T03:55:26.447Z,336.00
2018-04-26T03:56:26.871Z,360.00
2018-04-26T03:57:27.298Z,376.00
2018-04-26T03:58:27.724Z,392.00
2018-04-26T03:59:28.150Z,420.00
2018-04-26T04:00:28.578Z,448.00
2018-04-26T04:01:29.078Z,464.00
2018-04-26T04:02:29.438Z,488.00
2018-04-26T04:03:29.857Z,516.00
2018-04-26T04:04:30.290Z,564.00
2018-04-26T04:05:30.706Z,568.00
2018-04-26T04:06:31.131Z,556.00
2018-04-26T04:07:31.568Z,580.00
2018-04-26T04:08:32.014Z,644.00
2018-04-26T04:09:32.423Z,712.00
2018-04-26T04:10:32.846Z,740.00
2018-04-26T04:11:33.262Z,796.00
2018-04-26T04:12:33.694Z,800.00
2018-04-26T04:13:34.118Z,840.00
2018-04-26T04:14:34.548Z,892.00
2018-04-26T04:15:34.971Z,968.00
2018-04-26T04:16:35.396Z,1048.00
2018-04-26T04:17:35.822Z,1156.00
2018-04-26T04:18:36.254Z,1308.00
2018-04-26T04:19:36.671Z,1272.00
2018-04-26T04:20:37.105Z,1280.00
2018-04-26T04:21:37.532Z,1316.00
2018-04-26T04:22:37.956Z,1360.00
2018-04-26T04:23:38.401Z,1412.00
2018-04-26T04:24:38.806Z,1680.00
2018-04-26T04:25:39.235Z,1976.00
2018-04-26T04:26:39.663Z,2104.00
2018-04-26T04:27:40.129Z,1984.00
2018-04-26T04:28:40.512Z,1892.00
2018-04-26T04:29:40.943Z,1684.00
2018-04-26T04:30:41.371Z,1628.00
2018-04-26T04:31:41.791Z,1664.00
2018-04-26T04:32:42.221Z,1680.00
2018-04-26T04:33:42.651Z,1756.00
2018-04-26T04:34:43.071Z,1836.00
2018-04-26T04:35:43.498Z,2024.00
2018-04-26T04:36:43.928Z,2228.00
2018-04-26T04:37:44.349Z,2364.00
2018-04-26T04:38:44.786Z,2524.00
2018-04-26T04:39:45.208Z,2488.00
2018-04-26T04:40:45.636Z,2416.00
2018-04-26T04:41:46.061Z,2360.00
2018-04-26T04:42:46.488Z,2288.00
2018-04-26T04:43:46.911Z,2144.00
2018-04-26T04:44:47.346Z,1972.00
2018-04-26T04:45:47.770Z,1824.00
2018-04-26T04:46:48.196Z,1824.00
2018-04-26T04:47:48.624Z,1808.00
2018-04-26T04:48:49.046Z,1912.00
2018-04-26T04:49:49.481Z,2032.00
2018-04-26T04:50:49.904Z,2044.00
2018-04-26T04:51:50.332Z,2100.00
2018-04-26T04:52:50.790Z,2088.00
2018-04-26T04:53:51.254Z,2060.00
2018-04-26T04:54:51.620Z,2024.00
2018-04-26T04:55:52.045Z,2144.00
2018-04-26T04:56:52.468Z,2296.00
2018-04-26T04:57:52.894Z,2636.00
2018-04-26T04:58:53.322Z,3012.00
2018-04-26T04:59:53.835Z,3128.00
2018-04-26T05:00:54.174Z,3120.00
2018-04-26T05:01:54.686Z,3124.00
2018-04-26T05:02:55.030Z,3148.00
2018-04-26T05:03:55.455Z,3096.00
2018-04-26T05:04:55.906Z,3028.00
2018-04-26T05:05:56.314Z,3040.00
2018-04-26T05:06:56.747Z,3000.00
2018-04-26T05:07:57.196Z,2724.00
2018-04-26T05:08:57.601Z,2628.00
2018-04-26T05:09:58.023Z,2792.00
2018-04-26T05:10:58.451Z,3092.00
2018-04-26T05:11:58.873Z,3508.00
2018-04-26T05:12:59.310Z,4136.00
2018-04-26T05:13:59.745Z,4356.00
2018-04-26T05:15:00.163Z,4152.00
2018-04-26T05:16:00.590Z,3460.00
2018-04-26T05:17:01.016Z,2832.00
2018-04-26T05:18:01.454Z,2440.00
2018-04-26T05:19:01.871Z,2152.00
2018-04-26T05:20:02.308Z,2200.00
2018-04-26T05:21:02.729Z,2496.00
2018-04-26T05:22:03.156Z,2768.00
2018-04-26T05:23:03.589Z,3196.00
2018-04-26T05:24:04.019Z,3540.00
2018-04-26T05:25:04.433Z,3736.00
2018-04-26T05:26:04.884Z,3200.00
2018-04-26T05:27:05.305Z,2108.00
2018-04-26T05:28:05.734Z,1516.00
2018-04-26T05:29:06.155Z,1096.00
2018-04-26T05:30:06.649Z,932.00
2018-04-26T05:31:07.013Z,848.00
2018-04-26T05:32:07.439Z,820.00
2018-04-26T05:33:07.864Z,712.00
2018-04-26T05:34:08.295Z,684.00
2018-04-26T05:35:08.726Z,696.00
2018-04-26T05:36:09.147Z,680.00
2018-04-26T05:37:09.581Z,668.00
2018-04-26T05:38:10.010Z,664.00
2018-04-26T05:39:10.433Z,636.00
2018-04-26T05:40:10.875Z,684.00
2018-04-26T05:41:11.313Z,1040.00
2018-04-26T05:42:11.752Z,1452.00
2018-04-26T05:43:12.151Z,1652.00
2018-04-26T05:44:12.575Z,1916.00
2018-04-26T05:45:13.021Z,2128.00
2018-04-26T05:46:13.434Z,2348.00
2018-04-26T05:47:13.864Z,2524.00
2018-04-26T05:48:14.287Z,2708.00
2018-04-26T05:49:14.720Z,2840.00
2018-04-26T05:50:15.139Z,2744.00
2018-04-26T05:51:15.573Z,2684.00
2018-04-26T05:52:16.001Z,2500.00
2018-04-26T05:53:16.428Z,2268.00
2018-04-26T05:54:16.863Z,2156.00
2018-04-26T05:55:17.290Z,2184.00
2018-04-26T05:56:17.726Z,2260.00
2018-04-26T05:57:18.141Z,2508.00
2018-04-26T05:58:18.572Z,3032.00
2018-04-26T05:59:19.001Z,3856.00
2018-04-26T06:00:19.436Z,5220.00
2018-04-26T06:01:19.850Z,6616.00
2018-04-26T06:02:20.282Z,8060.00
2018-04-26T06:03:20.715Z,9032.00
2018-04-26T06:04:21.132Z,8936.00
2018-04-26T06:05:21.577Z,8168.00
2018-04-26T06:06:21.997Z,7620.00
2018-04-26T06:07:22.420Z,6856.00
2018-04-26T06:08:22.851Z,6360.00
2018-04-26T06:09:23.277Z,5460.00
2018-04-26T06:10:23.705Z,4488.00
2018-04-26T06:11:24.209Z,4508.00
2018-04-26T06:12:24.569Z,4968.00
2018-04-26T06:13:25.016Z,5328.00
2018-04-26T06:14:25.552Z,5320.00
2018-04-26T06:15:25.850Z,4732.00
2018-04-26T06:16:26.274Z,4372.00
2018-04-26T06:17:26.722Z,4268.00
2018-04-26T06:18:27.146Z,4496.00
2018-04-26T06:19:27.564Z,4600.00
2018-04-26T06:20:27.998Z,4520.00
2018-04-26T06:21:28.434Z,4580.00
2018-04-26T06:22:28.867Z,4544.00
2018-04-26T06:23:29.288Z,4296.00
2018-04-26T06:24:29.715Z,4080.00
2018-04-26T06:25:30.141Z,4232.00
2018-04-26T06:26:30.596Z,3820.00
2018-04-26T06:27:31.007Z,3216.00
2018-04-26T06:28:31.431Z,2796.00
2018-04-26T06:29:31.876Z,2776.00
2018-04-26T06:30:32.295Z,2988.00
2018-04-26T06:31:32.718Z,2956.00
2018-04-26T06:32:33.154Z,2856.00
2018-04-26T06:33:33.574Z,2532.00
2018-04-26T06:34:34.018Z,2792.00
2018-04-26T06:35:34.439Z,3212.00
2018-04-26T06:36:34.866Z,3600.00
2018-04-26T06:37:35.289Z,4032.00
2018-04-26T06:38:35.721Z,4268.00
2018-04-26T06:39:36.149Z,4404.00
2018-04-26T06:40:36.587Z,4344.00
2018-04-26T06:41:37.011Z,4216.00
2018-04-26T06:42:37.438Z,4036.00
2018-04-26T06:43:37.875Z,3904.00
2018-04-26T06:44:38.289Z,4096.00
2018-04-26T06:45:38.724Z,4332.00
2018-04-26T06:46:39.148Z,4648.00
2018-04-26T06:47:39.584Z,4964.00
2018-04-26T06:48:40.002Z,5104.00
2018-04-26T06:49:40.436Z,5552.00
2018-04-26T06:50:40.863Z,6060.00
2018-04-26T06:51:41.296Z,6224.00
2018-04-26T06:52:41.807Z,6132.00
2018-04-26T06:53:42.143Z,6104.00
2018-04-26T06:54:42.583Z,6144.00
2018-04-26T06:55:43.008Z,5812.00
2018-04-26T06:56:43.445Z,5164.00
2018-04-26T06:57:43.870Z,4372.00
2018-04-26T06:58:44.302Z,3792.00
2018-04-26T06:59:44.720Z,3696.00
2018-04-26T07:00:45.161Z,3796.00
2018-04-26T07:01:48.344Z,3680.00
2018-04-26T07:02:46.016Z,3788.00
2018-04-26T07:03:46.444Z,3808.00
2018-04-26T07:04:46.878Z,4188.00
2018-04-26T07:05:47.306Z,4668.00
2018-04-26T07:06:47.730Z,5144.00
2018-04-26T07:07:48.159Z,5236.00
2018-04-26T07:08:48.595Z,4740.00
2018-04-26T07:09:49.029Z,4548.00
2018-04-26T07:10:49.467Z,4168.00
2018-04-26T07:11:49.877Z,3760.00
2018-04-26T07:12:50.304Z,3688.00
2018-04-26T07:13:50.734Z,3736.00
2018-04-26T07:14:51.159Z,3632.00
2018-04-26T07:15:51.594Z,3952.00
2018-04-26T07:16:52.023Z,4340.00
2018-04-26T07:17:52.449Z,4200.00
2018-04-26T07:18:52.880Z,3940.00
2018-04-26T07:19:53.326Z,3800.00
2018-04-26T07:20:53.736Z,3516.00
2018-04-26T07:21:54.233Z,3468.00
2018-04-26T07:22:54.601Z,3308.00
2018-04-26T07:23:55.026Z,3172.00
2018-04-26T07:24:55.456Z,3000.00
2018-04-26T07:25:55.898Z,2824.00
2018-04-26T07:26:56.314Z,2412.00
2018-04-26T07:27:56.739Z,2332.00
2018-04-26T07:28:57.178Z,2724.00
2018-04-26T07:29:57.600Z,3084.00
2018-04-26T07:30:58.037Z,3096.00
2018-04-26T07:31:58.454Z,2764.00
2018-04-26T07:32:58.886Z,2252.00
2018-04-26T07:33:59.318Z,1968.00
2018-04-26T07:34:59.744Z,1968.00
2018-04-26T07:36:00.174Z,2200.00
2018-04-26T07:37:00.608Z,2556.00
2018-04-26T07:38:01.028Z,3304.00
2018-04-26T07:39:01.458Z,4180.00
2018-04-26T07:40:01.890Z,4948.00
2018-04-26T07:41:02.328Z,6108.00
2018-04-26T07:42:02.742Z,7680.00
2018-04-26T07:43:03.178Z,9160.00
2018-04-26T07:44:03.605Z,11196.00
2018-04-26T07:45:04.028Z,13300.00
2018-04-26T07:46:04.465Z,16352.00
2018-04-26T07:47:04.942Z,18400.00
2018-04-26T07:48:05.324Z,27296.00
2018-04-26T07:49:05.748Z,16864.00
2018-04-26T07:50:06.173Z,17312.00
2018-04-26T07:51:06.622Z,61696.00
2018-04-26T07:52:07.035Z,51072.00
2018-04-26T07:53:07.532Z,57216.00
2018-04-26T07:54:07.901Z,57536.00
2018-04-26T07:55:08.338Z,57408.00
2018-04-26T07:56:08.770Z,43648.00
2018-04-26T07:57:09.212Z,28640.00
2018-04-26T07:58:09.634Z,56576.00
2018-04-26T07:59:10.075Z,64288.00
2018-04-26T08:00:10.522Z,41344.00
2018-04-26T08:01:10.953Z,38848.00
2018-04-26T08:02:11.401Z,67712.00
2018-04-26T08:03:11.830Z,49792.00
2018-04-26T08:04:12.279Z,43008.00
2018-04-26T08:05:12.726Z,46464.00
2018-04-26T08:06:13.161Z,38976.00
2018-04-26T08:07:13.598Z,39392.00
2018-04-26T08:08:14.045Z,43488.00
2018-04-26T08:09:14.486Z,42784.00
2018-04-26T08:10:14.932Z,29952.00
2018-04-26T08:11:15.383Z,36832.00
2018-04-26T08:12:15.814Z,58208.00
2018-04-26T08:13:16.261Z,47744.00
2018-04-26T08:14:16.709Z,40352.00
2018-04-26T08:15:17.145Z,24832.00
2018-04-26T08:16:17.596Z,31776.00
2018-04-26T08:17:18.043Z,46656.00
2018-04-26T08:18:18.482Z,50112.00
2018-04-26T08:19:18.931Z,47648.00
2018-04-26T08:20:19.377Z,43840.00
2018-04-26T08:21:19.828Z,42560.00
2018-04-26T08:22:20.270Z,14728.00
2018-04-26T08:23:20.715Z,22688.00
2018-04-26T08:24:21.160Z,49376.00
2018-04-26T08:25:21.607Z,54848.00
2018-04-26T08:26:22.060Z,57952.00
2018-04-26T08:27:22.503Z,61056.00
2018-04-26T08:28:22.948Z,62432.00
2018-04-26T08:29:23.427Z,31040.00
2018-04-26T08:30:23.864Z,15292.00
2018-04-26T08:31:24.290Z,15836.00
2018-04-26T08:32:24.735Z,25344.00
2018-04-26T08:33:25.188Z,54464.00
2018-04-26T08:34:25.658Z,15144.00
2018-04-26T08:35:26.077Z,9844.00
2018-04-26T08:36:26.529Z,6000.00
2018-04-26T08:37:26.966Z,3536.00
2018-04-26T08:38:27.410Z,2512.00
2018-04-26T08:39:27.859Z,2696.00
2018-04-26T08:40:28.297Z,2320.00
2018-04-26T08:41:28.744Z,1676.00
2018-04-26T08:42:29.185Z,1180.00
2018-04-26T08:43:29.628Z,992.00
2018-04-26T08:44:30.066Z,828.00
2018-04-26T08:45:30.524Z,768.00
2018-04-26T08:46:30.948Z,996.00
2018-04-26T08:47:31.387Z,1416.00
2018-04-26T08:48:31.829Z,1940.00
2018-04-26T08:49:32.260Z,2588.00
2018-04-26T08:50:32.694Z,2584.00
2018-04-26T08:51:33.135Z,2796.00
2018-04-26T08:52:33.571Z,3136.00
2018-04-26T08:53:34.004Z,3376.00
2018-04-26T08:54:34.434Z,3884.00
2018-04-26T08:55:34.875Z,4488.00
2018-04-26T08:56:35.311Z,5264.00
2018-04-26T08:57:35.737Z,5468.00
2018-04-26T08:58:36.169Z,4924.00
2018-04-26T08:59:36.602Z,4156.00
2018-04-26T09:00:37.040Z,3756.00
2018-04-26T09:01:37.464Z,3460.00
2018-04-26T09:02:37.909Z,3596.00
2018-04-26T09:03:38.328Z,3976.00
2018-04-26T09:04:38.754Z,4100.00
2018-04-26T09:05:39.247Z,3980.00
2018-04-26T09:06:39.655Z,4520.00
2018-04-26T09:07:40.049Z,5672.00
2018-04-26T09:08:40.479Z,7536.00
2018-04-26T09:09:40.916Z,12368.00
2018-04-26T09:10:41.343Z,10372.00
2018-04-26T09:11:41.772Z,11052.00
2018-04-26T09:12:42.203Z,8792.00
2018-04-26T09:13:42.641Z,6648.00
2018-04-26T09:14:43.065Z,5216.00
2018-04-26T09:15:43.552Z,4264.00
2018-04-26T09:16:43.927Z,2696.00
2018-04-26T09:17:44.357Z,2000.00
2018-04-26T09:18:44.782Z,1864.00
2018-04-26T09:19:45.214Z,1908.00
2018-04-26T09:20:45.650Z,1880.00
2018-04-26T09:21:46.069Z,1784.00
2018-04-26T09:22:46.507Z,1628.00
2018-04-26T09:23:46.930Z,1468.00
2018-04-26T09:24:47.367Z,1436.00
2018-04-26T09:25:47.816Z,1284.00
2018-04-26T09:26:48.223Z,1236.00
2018-04-26T09:27:48.646Z,1468.00
2018-04-26T09:28:49.088Z,1596.00
2018-04-26T09:29:49.505Z,1604.00
2018-04-26T09:30:49.929Z,1748.00
2018-04-26T09:31:50.359Z,1996.00
2018-04-26T09:32:50.782Z,2296.00
2018-04-26T09:33:51.211Z,3404.00
2018-04-26T09:34:51.643Z,4644.00
2018-04-26T09:35:52.066Z,5436.00
2018-04-26T09:36:52.491Z,5792.00
2018-04-26T09:37:52.922Z,5896.00
2018-04-26T09:38:53.350Z,5392.00
2018-04-26T09:39:53.775Z,4888.00
2018-04-26T09:40:54.205Z,5156.00
2018-04-26T09:41:54.628Z,5304.00
2018-04-26T09:42:55.058Z,5672.00
2018-04-26T09:43:55.482Z,5896.00
2018-04-26T09:44:55.910Z,6444.00
2018-04-26T09:45:56.345Z,7376.00
2018-04-26T09:46:56.767Z,8720.00
2018-04-26T09:47:57.237Z,9492.00
2018-04-26T09:48:57.649Z,10528.00
2018-04-26T09:49:58.049Z,11484.00
2018-04-26T09:50:58.474Z,12284.00
2018-04-26T09:51:58.904Z,12964.00
2018-04-26T09:52:59.345Z,13372.00
2018-04-26T09:53:59.755Z,14908.00
2018-04-26T09:55:00.183Z,18880.00
2018-04-26T09:56:00.608Z,19168.00
2018-04-26T09:57:01.192Z,20864.00
2018-04-26T09:58:01.462Z,23072.00
2018-04-26T09:59:01.892Z,24064.00
2018-04-26T10:00:02.323Z,22848.00
2018-04-26T10:01:02.761Z,19968.00
2018-04-26T10:02:03.184Z,17664.00
2018-04-26T10:03:03.616Z,16288.00
2018-04-26T10:04:04.090Z,15304.00
2018-04-26T10:05:04.476Z,14216.00
2018-04-26T10:06:04.901Z,13028.00
2018-04-26T10:07:05.329Z,12428.00
2018-04-26T10:08:05.773Z,13144.00
2018-04-26T10:09:06.267Z,16096.00
2018-04-26T10:10:06.621Z,23616.00
2018-04-26T10:11:07.081Z,25056.00
2018-04-26T10:12:07.509Z,32096.00
2018-04-26T10:13:07.915Z,38912.00
2018-04-26T10:14:08.342Z,51872.00
2018-04-26T10:15:08.787Z,64832.00
2018-04-26T10:16:09.221Z,65728.00
2018-04-26T10:17:09.641Z,52032.00
2018-04-26T10:18:10.084Z,95136.00
2018-04-26T10:19:10.507Z,94880.00
2018-04-26T10:20:10.944Z,70240.00
2018-04-26T10:21:11.441Z,74944.00
2018-04-26T10:22:11.825Z,59904.00
2018-04-26T10:23:12.266Z,57664.00
2018-04-26T10:24:12.700Z,85408.00
2018-04-26T10:25:13.151Z,84128.00
2018-04-26T10:26:13.584Z,34016.00
2018-04-26T10:27:14.029Z,18048.00
2018-04-26T10:28:14.472Z,56064.00
2018-04-26T10:29:14.925Z,106080.00
2018-04-26T10:30:15.357Z,19776.00
2018-04-26T10:31:15.810Z,18432.00
2018-04-26T10:32:16.247Z,15424.00
2018-04-26T10:33:16.712Z,63744.00
2018-04-26T10:34:17.136Z,65856.00
2018-04-26T10:35:17.585Z,80992.00
2018-04-26T10:36:18.024Z,95520.00
2018-04-26T10:37:18.473Z,12968.00
2018-04-26T10:38:18.920Z,101984.00
2018-04-26T10:39:19.357Z,16544.00
2018-04-26T10:40:19.809Z,82528.00
2018-04-26T10:41:20.247Z,23904.00
2018-04-26T10:42:20.692Z,92192.00
2018-04-26T10:43:21.134Z,82592.00
2018-04-26T10:44:21.599Z,19680.00
2018-04-26T10:45:22.033Z,35328.00
2018-04-26T10:46:22.503Z,107456.00
2018-04-26T10:47:22.930Z,17952.00
2018-04-26T10:48:23.366Z,11448.00
2018-04-26T10:49:23.817Z,7800.00
2018-04-26T10:50:24.262Z,5364.00
2018-04-26T10:51:24.710Z,4932.00
2018-04-26T10:52:25.156Z,3836.00
2018-04-26T10:53:25.600Z,3556.00
2018-04-26T10:54:26.054Z,2584.00
2018-04-26T10:55:26.486Z,2116.00
2018-04-26T10:56:26.921Z,3944.00
2018-04-26T10:57:27.391Z,4312.00
2018-04-26T10:58:27.850Z,5392.00
2018-04-26T10:59:28.242Z,10144.00
2018-04-26T11:00:28.674Z,10348.00
2018-04-26T11:01:29.108Z,10260.00
2018-04-26T11:02:29.561Z,11360.00
2018-04-26T11:03:30.023Z,11676.00
2018-04-26T11:04:30.427Z,10200.00
2018-04-26T11:05:30.851Z,8592.00
2018-04-26T11:06:31.288Z,10860.00
2018-04-26T11:07:31.726Z,13344.00
2018-04-26T11:08:32.161Z,13696.00
2018-04-26T11:09:32.608Z,12584.00
2018-04-26T11:10:33.026Z,118272.00
2018-04-26T11:11:33.494Z,17472.00
2018-04-26T11:12:33.905Z,110528.00
2018-04-26T11:13:34.376Z,104544.00
2018-04-26T11:14:34.759Z,104000.00
2018-04-26T11:15:35.235Z,99904.00
2018-04-26T11:16:35.640Z,103328.00
2018-04-26T11:17:36.082Z,88832.00
2018-04-26T11:18:36.518Z,24608.00
2018-04-26T11:19:36.965Z,85024.00
2018-04-26T11:20:37.408Z,20320.00
2018-04-26T11:21:37.847Z,27488.00
2018-04-26T11:22:38.447Z,110016.00
2018-04-26T11:23:38.735Z,36640.00
2018-04-26T11:24:39.180Z,60736.00
2018-04-26T11:25:39.627Z,35552.00
2018-04-26T11:26:40.064Z,93440.00
2018-04-26T11:27:40.514Z,11700.00
2018-04-26T11:28:40.950Z,18016.00
2018-04-26T11:29:41.408Z,33248.00
2018-04-26T11:30:41.859Z,14900.00
2018-04-26T11:31:42.291Z,10464.00
2018-04-26T11:32:42.771Z,16740.00
2018-04-26T11:33:43.197Z,67840.00
2018-04-26T11:34:43.629Z,93664.00
2018-04-26T11:35:44.075Z,38048.00
2018-04-26T11:36:44.517Z,12728.00
2018-04-26T11:37:44.981Z,13092.00
2018-04-26T11:38:45.403Z,9864.00
2018-04-26T11:39:45.847Z,10608.00
2018-04-26T11:40:46.287Z,12168.00
2018-04-26T11:41:46.748Z,10024.00
2018-04-26T11:42:47.175Z,8340.00
2018-04-26T11:43:47.626Z,7912.00
2018-04-26T11:44:48.056Z,9852.00
2018-04-26T11:45:48.515Z,13996.00
2018-04-26T11:46:49.023Z,10084.00
2018-04-26T11:47:49.428Z,9284.00
2018-04-26T11:48:49.828Z,9080.00
2018-04-26T11:49:50.248Z,9712.00
2018-04-26T11:50:50.689Z,10376.00
2018-04-26T11:51:51.125Z,13872.00
2018-04-26T11:52:51.564Z,13432.00
2018-04-26T11:53:52.084Z,12268.00
2018-04-26T11:54:52.428Z,10460.00
2018-04-26T11:55:52.879Z,9140.00
2018-04-26T11:56:53.309Z,8208.00
2018-04-26T11:57:53.747Z,7444.00
2018-04-26T11:58:54.175Z,6916.00
2018-04-26T11:59:54.619Z,7544.00
2018-04-26T12:00:55.069Z,6688.00
2018-04-26T12:02:10.481Z,6996.00
2018-04-26T12:02:55.922Z,7488.00
2018-04-26T12:03:56.363Z,10352.00
2018-04-26T12:04:56.789Z,8640.00
2018-04-26T12:05:57.225Z,9660.00
2018-04-26T12:06:57.655Z,11604.00
2018-04-26T12:07:58.096Z,11516.00
2018-04-26T12:08:58.528Z,11736.00
2018-04-26T12:09:58.961Z,10732.00
2018-04-26T12:10:59.434Z,10424.00
2018-04-26T12:11:59.879Z,9616.00
2018-04-26T12:13:00.292Z,8648.00
2018-04-26T12:14:00.703Z,8356.00
2018-04-26T12:15:01.147Z,7964.00
2018-04-26T12:16:01.564Z,7308.00
2018-04-26T12:17:02.008Z,6684.00
2018-04-26T12:18:02.441Z,6300.00
2018-04-26T12:19:02.871Z,5892.00
2018-04-26T12:20:03.326Z,4944.00
2018-04-26T12:21:03.738Z,4576.00
2018-04-26T12:22:04.179Z,4328.00
2018-04-26T12:23:04.609Z,4016.00
2018-04-26T12:24:05.053Z,3972.00
2018-04-26T12:25:05.481Z,4132.00
2018-04-26T12:26:05.973Z,4448.00
2018-04-26T12:27:06.335Z,6024.00